Time,TemperatureF,DewpointF,PressureIn,WindDirection,WindDirectionDegrees,WindSpeedMPH,WindSpeedGustMPH,Humidity,HourlyPrecipIn,Conditions,Clouds,dailyrainin,SoftwareType,DateUTC
2013-01-07 00:00:00,2.9,-1.9,30.59,WNW,283,0.0,0.0,80,0.00,,,0.00,Wunderground v.1.15,2013-01-07 07:00:00,
2013-01-07 00:05:00,2.9,-1.9,30.56,WNW,284,0.0,0.0,80,0.00,,,0.00,Wunderground v.1.15,2013-01-07 07:05:00,
2013-01-07 00:15:00,2.6,-2.2,30.56,WNW,284,0.0,0.0,80,0.00,,,0.00,Wunderground v.1.15,2013-01-07 07:15:00,
2013-01-07 00:20:00,2.4,-2.4,30.56,WNW,284,1.0,2.0,80,0.00,,,0.00,Wunderground v.1.15,2013-01-07 07:20:00,
2013-01-07 00:25:00,2.1,-2.7,30.56,WNW,284,1.0,2.0,80,0.00,,,0.00,Wunderground v.1.15,2013-01-07 07:25:00,
2013-01-07 00:30:00,1.5,-3.5,30.56,WNW,284,2.0,3.0,79,0.00,,,0.00,Wunderground v.1.15,2013-01-07 07:30:00,
2013-01-07 00:35:00,0.9,-4.1,30.58,WNW,285,3.0,3.0,79,0.00,,,0.00,Wunderground v.1.15,2013-01-07 07:35:00,
2013-01-07 00:40:00,0.4,-4.6,30.58,WNW,285,2.0,2.0,79,0.00,,,0.00,Wunderground v.1.15,2013-01-07 07:40:00,
2013-01-07 00:45:00,0.2,-4.8,30.57,WNW,285,1.0,2.0,79,0.00,,,0.00,Wunderground v.1.15,2013-01-07 07:45:00,
2013-01-07 00:50:00,0.1,-4.9,30.58,WNW,285,0.0,0.0,79,0.00,,,0.00,Wunderground v.1.15,2013-01-07 07:50:00,
2013-01-07 00:55:00,-0.1,-5.1,30.58,WNW,285,0.0,1.0,79,0.00,,,0.00,Wunderground v.1.15,2013-01-07 07:55:00,
2013-01-07 01:00:00,-0.2,-5.2,30.58,WNW,285,1.0,2.0,79,0.00,,,0.00,Wunderground v.1.15,2013-01-07 08:00:00,
2013-01-07 01:05:00,-0.5,-5.5,30.57,WNW,287,2.0,2.0,79,0.00,,,0.00,Wunderground v.1.15,2013-01-07 08:05:00,
2013-01-07 01:15:00,-0.8,-5.7,30.58,WNW,287,1.0,2.0,79,0.00,,,0.00,Wunderground v.1.15,2013-01-07 08:15:00,
2013-01-07 01:20:00,-0.9,-5.8,30.58,WNW,287,1.0,1.0,79,0.00,,,0.00,Wunderground v.1.15,2013-01-07 08:20:00,
2013-01-07 01:25:00,-0.8,-5.7,30.57,WNW,287,0.0,1.0,79,0.00,,,0.00,Wunderground v.1.15,2013-01-07 08:25:00,
2013-01-07 01:30:00,-0.8,-5.7,30.57,WNW,287,0.0,0.0,79,0.00,,,0.00,Wunderground v.1.15,2013-01-07 08:30:00,
2013-01-07 01:35:00,-0.7,-5.4,30.57,WNW,287,0.0,0.0,80,0.00,,,0.00,Wunderground v.1.15,2013-01-07 08:35:00,
2013-01-07 01:40:00,-0.3,-5.0,30.56,WNW,287,0.0,0.0,80,0.00,,,0.00,Wunderground v.1.15,2013-01-07 08:40:00,
2013-01-07 01:55:00,-0.5,-5.2,30.57,WNW,287,1.0,2.0,80,0.00,,,0.00,Wunderground v.1.15,2013-01-07 08:55:00,
2013-01-07 02:00:00,-0.8,-5.7,30.57,WNW,287,1.0,2.0,79,0.00,,,0.00,Wunderground v.1.15,2013-01-07 09:00:00,
2013-01-07 02:05:00,-1.1,-6.0,30.56,WNW,287,2.0,2.0,79,0.00,,,0.00,Wunderground v.1.15,2013-01-07 09:05:00,
2013-01-07 02:15:00,-1.5,-6.4,30.55,NW,317,2.0,2.0,79,0.00,,,0.00,Wunderground v.1.15,2013-01-07 09:15:00,
2013-01-07 02:20:00,-1.6,-6.5,30.55,NW,317,1.0,1.0,79,0.00,,,0.00,Wunderground v.1.15,2013-01-07 09:20:00,
2013-01-07 02:25:00,-1.6,-6.5,30.55,NW,317,0.0,1.0,79,0.00,,,0.00,Wunderground v.1.15,2013-01-07 09:25:00,
2013-01-07 02:30:00,-1.4,-6.3,30.55,NW,317,0.0,0.0,79,0.00,,,0.00,Wunderground v.1.15,2013-01-07 09:30:00,
2013-01-07 02:40:00,-1.9,-6.8,30.55,NW,317,1.0,1.0,79,0.00,,,0.00,Wunderground v.1.15,2013-01-07 09:40:00,
2013-01-07 02:45:00,-2.3,-7.5,30.55,NW,317,1.0,1.0,78,0.00,,,0.00,Wunderground v.1.15,2013-01-07 09:45:00,
2013-01-07 02:55:00,-2.9,-8.1,30.57,NW,317,0.0,1.0,78,0.00,,,0.00,Wunderground v.1.15,2013-01-07 09:55:00,
2013-01-07 03:00:00,-3.1,-8.3,30.57,NW,317,0.0,0.0,78,0.00,,,0.00,Wunderground v.1.15,2013-01-07 10:00:00,
2013-01-07 03:05:00,-3.1,-8.3,30.57,NW,317,0.0,0.0,78,0.00,,,0.00,Wunderground v.1.15,2013-01-07 10:05:00,
2013-01-07 03:15:00,-3.1,-8.0,30.57,NW,317,0.0,0.0,79,0.00,,,0.00,Wunderground v.1.15,2013-01-07 10:15:00,
2013-01-07 03:20:00,-2.9,-7.8,30.57,NW,317,0.0,0.0,79,0.00,,,0.00,Wunderground v.1.15,2013-01-07 10:20:00,
2013-01-07 03:30:00,-2.8,-7.7,30.57,NW,317,0.0,0.0,79,0.00,,,0.00,Wunderground v.1.15,2013-01-07 10:30:00,
2013-01-07 03:35:00,-2.9,-7.8,30.57,NW,317,0.0,0.0,79,0.00,,,0.00,Wunderground v.1.15,2013-01-07 10:35:00,
2013-01-07 03:45:00,-3.2,-8.1,30.57,NW,317,1.0,1.0,79,0.00,,,0.00,Wunderground v.1.15,2013-01-07 10:45:00,
2013-01-07 03:55:00,-3.7,-8.8,30.57,NW,317,0.0,1.0,78,0.00,,,0.00,Wunderground v.1.15,2013-01-07 10:55:00,
2013-01-07 04:00:00,-3.8,-8.9,30.56,NW,317,0.0,0.0,78,0.00,,,0.00,Wunderground v.1.15,2013-01-07 11:00:00,
2013-01-07 04:05:00,-3.9,-9.0,30.57,NW,317,1.0,1.0,78,0.00,,,0.00,Wunderground v.1.15,2013-01-07 11:05:00,
2013-01-07 04:15:00,-3.6,-8.5,30.57,NW,317,1.0,1.0,79,0.00,,,0.00,Wunderground v.1.15,2013-01-07 11:15:00,
2013-01-07 04:20:00,-3.1,-8.0,30.56,NW,317,1.0,1.0,79,0.00,,,0.00,Wunderground v.1.15,2013-01-07 11:20:00,
2013-01-07 04:30:00,-2.4,-7.3,30.54,NW,320,3.0,3.0,79,0.00,,,0.00,Wunderground v.1.15,2013-01-07 11:30:00,
2013-01-07 04:35:00,-2.2,-7.1,30.54,NW,320,2.0,3.0,79,0.00,,,0.00,Wunderground v.1.15,2013-01-07 11:35:00,
2013-01-07 04:40:00,-2.1,-7.0,30.54,NW,319,1.0,2.0,79,0.00,,,0.00,Wunderground v.1.15,2013-01-07 11:40:00,
2013-01-07 04:45:00,-2.0,-6.9,30.54,NW,323,1.0,2.0,79,0.00,,,0.00,Wunderground v.1.15,2013-01-07 11:45:00,
2013-01-07 04:50:00,-2.4,-7.3,30.54,NNW,327,2.0,2.0,79,0.00,,,0.00,Wunderground v.1.15,2013-01-07 11:50:00,
2013-01-07 05:00:00,-3.9,-9.0,30.56,NNW,334,1.0,1.0,78,0.00,,,0.00,Wunderground v.1.15,2013-01-07 12:00:00,
2013-01-07 05:05:00,-4.3,-9.4,30.58,NNW,334,1.0,1.0,78,0.00,,,0.00,Wunderground v.1.15,2013-01-07 12:05:00,
2013-01-07 05:15:00,-5.2,-10.6,30.59,NNW,333,1.0,2.0,77,0.00,,,0.00,Wunderground v.1.15,2013-01-07 12:15:00,
2013-01-07 05:20:00,-5.7,-11.0,30.60,NNW,333,2.0,3.0,77,0.00,,,0.00,Wunderground v.1.15,2013-01-07 12:20:00,
2013-01-07 05:25:00,-6.2,-11.5,30.60,WSW,248,3.0,3.0,77,0.00,,,0.00,Wunderground v.1.15,2013-01-07 12:25:00,
2013-01-07 05:35:00,-6.8,-11.9,30.60,WSW,248,2.0,3.0,78,0.00,,,0.00,Wunderground v.1.15,2013-01-07 12:35:00,
2013-01-07 05:40:00,-6.6,-11.7,30.60,WNW,302,2.0,2.0,78,0.00,,,0.00,Wunderground v.1.15,2013-01-07 12:40:00,
2013-01-07 05:45:00,-6.3,-11.4,30.60,WNW,302,1.0,2.0,78,0.00,,,0.00,Wunderground v.1.15,2013-01-07 12:45:00,
2013-01-07 05:50:00,-6.1,-11.2,30.59,WNW,302,1.0,1.0,78,0.00,,,0.00,Wunderground v.1.15,2013-01-07 12:50:00,
2013-01-07 05:55:00,-6.0,-10.8,30.59,WNW,302,1.0,1.0,79,0.00,,,0.00,Wunderground v.1.15,2013-01-07 12:55:00,
2013-01-07 06:00:00,-5.9,-10.7,30.59,WNW,302,1.0,1.0,79,0.00,,,0.00,Wunderground v.1.15,2013-01-07 13:00:00,
2013-01-07 06:05:00,-5.8,-10.6,30.59,WNW,302,1.0,1.0,79,0.00,,,0.00,Wunderground v.1.15,2013-01-07 13:05:00,
2013-01-07 06:15:00,-5.7,-10.5,30.59,WNW,302,1.0,2.0,79,0.00,,,0.00,Wunderground v.1.15,2013-01-07 13:15:00,
2013-01-07 06:20:00,-5.5,-10.3,30.59,WNW,302,1.0,1.0,79,0.00,,,0.00,Wunderground v.1.15,2013-01-07 13:20:00,
2013-01-07 06:25:00,-5.4,-10.2,30.58,WNW,302,0.0,1.0,79,0.00,,,0.00,Wunderground v.1.15,2013-01-07 13:25:00,
2013-01-07 06:35:00,-5.2,-10.0,30.58,WNW,302,0.0,3.0,79,0.00,,,0.00,Wunderground v.1.15,2013-01-07 13:35:00,
2013-01-07 06:40:00,-5.2,-10.0,30.58,NNE,14,2.0,2.0,79,0.00,,,0.00,Wunderground v.1.15,2013-01-07 13:40:00,
2013-01-07 06:45:00,-5.4,-10.2,30.58,NNE,19,2.0,2.0,79,0.00,,,0.00,Wunderground v.1.15,2013-01-07 13:45:00,
2013-01-07 06:50:00,-5.5,-10.3,30.59,NNE,20,2.0,2.0,79,0.00,,,0.00,Wunderground v.1.15,2013-01-07 13:50:00,
2013-01-07 06:55:00,-5.5,-10.3,30.59,NNE,21,2.0,3.0,79,0.00,,,0.00,Wunderground v.1.15,2013-01-07 13:55:00,
2013-01-07 07:00:00,-5.4,-10.2,30.58,NNE,22,2.0,2.0,79,0.00,,,0.00,Wunderground v.1.15,2013-01-07 14:00:00,
2013-01-07 07:05:00,-5.4,-10.2,30.60,NNE,22,2.0,2.0,79,0.00,,,0.00,Wunderground v.1.15,2013-01-07 14:05:00,
2013-01-07 07:15:00,-5.4,-10.2,30.60,NNE,22,0.0,0.0,79,0.00,,,0.00,Wunderground v.1.15,2013-01-07 14:15:00,
2013-01-07 07:20:00,-5.6,-10.4,30.61,NNE,22,0.0,0.0,79,0.00,,,0.00,Wunderground v.1.15,2013-01-07 14:20:00,
2013-01-07 07:25:00,-5.9,-11.0,30.61,NNE,22,0.0,0.0,78,0.00,,,0.00,Wunderground v.1.15,2013-01-07 14:25:00,
2013-01-07 07:30:00,-6.1,-10.9,30.61,NNE,22,0.0,0.0,79,0.00,,,0.00,Wunderground v.1.15,2013-01-07 14:30:00,
2013-01-07 07:40:00,-5.7,-10.5,30.61,NNE,22,0.0,0.0,79,0.00,,,0.00,Wunderground v.1.15,2013-01-07 14:40:00,
2013-01-07 07:45:00,-5.2,-10.0,30.60,NNE,22,0.0,0.0,79,0.00,,,0.00,Wunderground v.1.15,2013-01-07 14:45:00,
2013-01-07 07:50:00,-4.8,-9.4,30.61,NNE,22,0.0,0.0,80,0.00,,,0.00,Wunderground v.1.15,2013-01-07 14:50:00,
2013-01-07 07:55:00,-4.6,-9.5,30.61,NNE,22,0.0,0.0,79,0.00,,,0.00,Wunderground v.1.15,2013-01-07 14:55:00,
2013-01-07 08:05:00,-4.8,-9.7,30.62,NNE,22,0.0,0.0,79,0.00,,,0.00,Wunderground v.1.15,2013-01-07 15:05:00,
2013-01-07 08:15:00,-4.4,-9.3,30.61,NNE,22,0.0,0.0,79,0.00,,,0.00,Wunderground v.1.15,2013-01-07 15:15:00,
2013-01-07 08:20:00,-4.1,-8.7,30.61,NNE,22,0.0,0.0,80,0.00,,,0.00,Wunderground v.1.15,2013-01-07 15:20:00,
2013-01-07 08:25:00,-4.0,-8.6,30.60,NNE,22,0.0,0.0,80,0.00,,,0.00,Wunderground v.1.15,2013-01-07 15:25:00,
2013-01-07 08:30:00,-3.9,-8.8,30.61,NNE,22,1.0,2.0,79,0.00,,,0.00,Wunderground v.1.15,2013-01-07 15:30:00,
2013-01-07 08:40:00,-3.7,-8.6,30.61,NNE,22,1.0,1.0,79,0.00,,,0.00,Wunderground v.1.15,2013-01-07 15:40:00,
2013-01-07 08:45:00,-3.5,-8.4,30.61,NNE,22,0.0,1.0,79,0.00,,,0.00,Wunderground v.1.15,2013-01-07 15:45:00,
2013-01-07 08:50:00,-3.5,-8.4,30.62,WSW,254,1.0,2.0,79,0.00,,,0.00,Wunderground v.1.15,2013-01-07 15:50:00,
2013-01-07 08:55:00,-3.3,-8.2,30.61,WSW,244,3.0,4.0,79,0.00,,,0.00,Wunderground v.1.15,2013-01-07 15:55:00,
2013-01-07 09:00:00,-3.5,-8.6,30.62,West,280,4.0,4.0,78,0.00,,,0.00,Wunderground v.1.15,2013-01-07 16:00:00,
2013-01-07 09:05:00,-3.7,-8.8,30.64,WNW,284,4.0,4.0,78,0.00,,,0.00,Wunderground v.1.15,2013-01-07 16:05:00,
2013-01-07 09:15:00,-3.7,-8.8,30.64,West,280,2.0,3.0,78,0.00,,,0.00,Wunderground v.1.15,2013-01-07 16:15:00,
2013-01-07 09:20:00,-3.4,-8.5,30.63,West,280,0.0,0.0,78,0.00,,,0.00,Wunderground v.1.15,2013-01-07 16:20:00,
2013-01-07 09:25:00,-3.0,-8.2,30.62,West,280,1.0,3.0,78,0.00,,,0.00,Wunderground v.1.15,2013-01-07 16:25:00,
2013-01-07 09:30:00,-2.4,-7.6,30.63,West,280,2.0,2.0,78,0.00,,,0.00,Wunderground v.1.15,2013-01-07 16:30:00,
2013-01-07 09:35:00,-1.7,-6.6,30.63,West,280,1.0,2.0,79,0.00,,,0.00,Wunderground v.1.15,2013-01-07 16:35:00,
2013-01-07 09:40:00,-0.8,-5.7,30.61,West,281,1.0,1.0,79,0.00,,,0.00,Wunderground v.1.15,2013-01-07 16:40:00,
2013-01-07 09:45:00,0.1,-4.9,30.61,West,280,1.0,1.0,79,0.00,,,0.00,Wunderground v.1.15,2013-01-07 16:45:00,
2013-01-07 09:50:00,1.0,-4.0,30.60,West,281,1.0,1.0,79,0.00,,,0.00,Wunderground v.1.15,2013-01-07 16:50:00,
2013-01-07 09:55:00,2.2,-2.6,30.60,West,281,1.0,1.0,80,0.00,,,0.00,Wunderground v.1.15,2013-01-07 16:55:00,
2013-01-07 10:00:00,3.0,-2.0,30.59,West,281,0.0,0.0,79,0.00,,,0.00,Wunderground v.1.15,2013-01-07 17:00:00,
2013-01-07 10:05:00,4.0,-1.1,30.60,WNW,284,0.0,0.0,79,0.00,,,0.00,Wunderground v.1.15,2013-01-07 17:05:00,
2013-01-07 10:15:00,6.1,1.0,30.59,WNW,284,0.0,0.0,79,0.00,,,0.00,Wunderground v.1.15,2013-01-07 17:15:00,
2013-01-07 10:20:00,7.1,1.7,30.58,WNW,287,0.0,0.0,78,0.00,,,0.00,Wunderground v.1.15,2013-01-07 17:20:00,
2013-01-07 10:25:00,8.0,2.6,30.59,NNE,18,1.0,5.0,78,0.00,,,0.00,Wunderground v.1.15,2013-01-07 17:25:00,
2013-01-07 10:30:00,8.1,2.1,30.59,NNW,331,2.0,2.0,76,0.00,,,0.00,Wunderground v.1.15,2013-01-07 17:30:00,
2013-01-07 10:35:00,8.3,2.0,30.59,NW,323,3.0,3.0,75,0.00,,,0.00,Wunderground v.1.15,2013-01-07 17:35:00,
2013-01-07 10:45:00,9.5,2.9,30.58,NNE,19,0.0,2.0,74,0.00,,,0.00,Wunderground v.1.15,2013-01-07 17:45:00,
2013-01-07 10:50:00,9.5,2.6,30.57,NNE,21,1.0,1.0,73,0.00,,,0.00,Wunderground v.1.15,2013-01-07 17:50:00,
2013-01-07 10:55:00,9.7,2.8,30.57,WNW,290,1.0,3.0,73,0.00,,,0.00,Wunderground v.1.15,2013-01-07 17:55:00,
2013-01-07 11:00:00,9.9,2.7,30.56,WNW,290,1.0,1.0,72,0.00,,,0.00,Wunderground v.1.15,2013-01-07 18:00:00,
2013-01-07 11:05:00,10.1,2.9,30.57,WNW,290,1.0,1.0,72,0.00,,,0.00,Wunderground v.1.15,2013-01-07 18:05:00,
2013-01-07 11:15:00,10.7,3.1,30.55,WNW,290,0.0,1.0,71,0.00,,,0.00,Wunderground v.1.15,2013-01-07 18:15:00,
2013-01-07 11:20:00,11.3,4.0,30.54,WNW,290,0.0,0.0,72,0.00,,,0.00,Wunderground v.1.15,2013-01-07 18:20:00,
2013-01-07 11:25:00,11.9,4.3,30.53,WSW,256,0.0,1.0,71,0.00,,,0.00,Wunderground v.1.15,2013-01-07 18:25:00,
2013-01-07 11:30:00,12.2,4.3,30.53,West,279,1.0,3.0,70,0.00,,,0.00,Wunderground v.1.15,2013-01-07 18:30:00,
2013-01-07 11:35:00,12.8,5.2,30.52,WNW,291,2.0,3.0,71,0.00,,,0.00,Wunderground v.1.15,2013-01-07 18:35:00,
2013-01-07 11:40:00,13.7,5.4,30.52,WNW,302,3.0,5.0,69,0.00,,,0.00,Wunderground v.1.15,2013-01-07 18:40:00,
2013-01-07 11:50:00,13.6,5.0,30.51,West,277,3.0,5.0,68,0.00,,,0.00,Wunderground v.1.15,2013-01-07 18:50:00,
2013-01-07 11:55:00,12.7,4.1,30.51,West,274,4.0,6.0,68,0.00,,,0.00,Wunderground v.1.15,2013-01-07 18:55:00,
2013-01-07 12:05:00,12.2,4.6,30.53,WNW,292,6.0,6.0,71,0.00,,,0.00,Wunderground v.1.15,2013-01-07 19:05:00,
2013-01-07 12:15:00,12.8,5.2,30.52,West,273,6.0,6.0,71,0.00,,,0.00,Wunderground v.1.15,2013-01-07 19:15:00,
2013-01-07 12:20:00,12.8,5.2,30.52,WNW,282,6.0,6.0,71,0.00,,,0.00,Wunderground v.1.15,2013-01-07 19:20:00,
2013-01-07 12:25:00,13.8,6.4,30.51,West,269,5.0,6.0,72,0.00,,,0.00,Wunderground v.1.15,2013-01-07 19:25:00,
2013-01-07 12:30:00,14.2,6.5,30.51,WNW,295,5.0,5.0,71,0.00,,,0.00,Wunderground v.1.15,2013-01-07 19:30:00,
2013-01-07 12:35:00,15.0,7.3,30.51,WNW,288,5.0,5.0,71,0.00,,,0.00,Wunderground v.1.15,2013-01-07 19:35:00,
2013-01-07 12:40:00,16.0,7.9,30.49,WNW,284,5.0,7.0,70,0.00,,,0.00,Wunderground v.1.15,2013-01-07 19:40:00,
2013-01-07 12:50:00,16.2,7.8,30.49,WNW,287,5.0,5.0,69,0.00,,,0.00,Wunderground v.1.15,2013-01-07 19:50:00,
2013-01-07 12:55:00,16.6,7.9,30.48,West,281,5.0,5.0,68,0.00,,,0.00,Wunderground v.1.15,2013-01-07 19:55:00,
2013-01-07 13:00:00,16.7,8.0,30.48,WNW,292,4.0,4.0,68,0.00,,,0.00,Wunderground v.1.15,2013-01-07 20:00:00,
2013-01-07 13:05:00,17.1,8.0,30.48,WNW,293,3.0,4.0,67,0.00,,,0.00,Wunderground v.1.15,2013-01-07 20:05:00,
2013-01-07 13:15:00,18.3,9.2,30.47,North,360,3.0,4.0,67,0.00,,,0.00,Wunderground v.1.15,2013-01-07 20:15:00,
2013-01-07 13:25:00,20.2,10.0,30.46,North,355,1.0,2.0,64,0.00,,,0.00,Wunderground v.1.15,2013-01-07 20:25:00,
2013-01-07 13:30:00,20.9,9.9,30.44,NNW,328,2.0,3.0,62,0.00,,,0.00,Wunderground v.1.15,2013-01-07 20:30:00,
2013-01-07 13:35:00,21.3,10.3,30.44,NNW,337,2.0,3.0,62,0.00,,,0.00,Wunderground v.1.15,2013-01-07 20:35:00,
2013-01-07 13:40:00,21.5,10.5,30.45,NNE,32,2.0,2.0,62,0.00,,,0.00,Wunderground v.1.15,2013-01-07 20:40:00,
2013-01-07 13:45:00,21.3,10.3,30.44,NNE,32,2.0,5.0,62,0.00,,,0.00,Wunderground v.1.15,2013-01-07 20:45:00,
2013-01-07 13:50:00,20.8,9.8,30.45,NE,37,2.0,2.0,62,0.00,,,0.00,Wunderground v.1.15,2013-01-07 20:50:00,
2013-01-07 13:55:00,20.2,9.2,30.45,NE,43,2.0,4.0,62,0.00,,,0.00,Wunderground v.1.15,2013-01-07 20:55:00,
2013-01-07 14:00:00,19.6,9.0,30.45,NE,44,3.0,4.0,63,0.00,,,0.00,Wunderground v.1.15,2013-01-07 21:00:00,
2013-01-07 14:05:00,19.2,9.0,30.46,NE,42,3.0,4.0,64,0.00,,,0.00,Wunderground v.1.15,2013-01-07 21:05:00,
2013-01-07 14:15:00,21.3,11.0,30.45,NE,51,2.0,3.0,64,0.00,,,0.00,Wunderground v.1.15,2013-01-07 21:15:00,
2013-01-07 14:20:00,21.8,11.1,30.45,North,355,2.0,2.0,63,0.00,,,0.00,Wunderground v.1.15,2013-01-07 21:20:00,
2013-01-07 14:30:00,22.3,10.9,30.45,NW,312,2.0,2.0,61,0.00,,,0.00,Wunderground v.1.15,2013-01-07 21:30:00,
2013-01-07 14:35:00,22.3,10.9,30.45,NNW,342,2.0,2.0,61,0.00,,,0.00,Wunderground v.1.15,2013-01-07 21:35:00,
2013-01-07 14:40:00,22.1,10.7,30.45,NNW,329,2.0,3.0,61,0.00,,,0.00,Wunderground v.1.15,2013-01-07 21:40:00,
2013-01-07 14:45:00,22.0,10.6,30.45,NW,319,2.0,3.0,61,0.00,,,0.00,Wunderground v.1.15,2013-01-07 21:45:00,
2013-01-07 14:55:00,22.2,10.8,30.46,NW,323,3.0,3.0,61,0.00,,,0.00,Wunderground v.1.15,2013-01-07 21:55:00,
2013-01-07 15:00:00,22.4,11.0,30.46,NW,306,3.0,4.0,61,0.00,,,0.00,Wunderground v.1.15,2013-01-07 22:00:00,
2013-01-07 15:05:00,22.6,11.2,30.46,NW,304,2.0,4.0,61,0.00,,,0.00,Wunderground v.1.15,2013-01-07 22:05:00,
2013-01-07 15:15:00,22.9,11.1,30.46,NNW,342,3.0,5.0,60,0.00,,,0.00,Wunderground v.1.15,2013-01-07 22:15:00,
2013-01-07 15:20:00,22.8,11.0,30.46,NW,319,3.0,3.0,60,0.00,,,0.00,Wunderground v.1.15,2013-01-07 22:20:00,
2013-01-07 15:25:00,22.4,10.6,30.46,NW,325,2.0,3.0,60,0.00,,,0.00,Wunderground v.1.15,2013-01-07 22:25:00,
2013-01-07 15:30:00,22.1,10.3,30.46,NNW,331,2.0,2.0,60,0.00,,,0.00,Wunderground v.1.15,2013-01-07 22:30:00,
2013-01-07 15:35:00,21.7,9.9,30.46,NNW,348,2.0,4.0,60,0.00,,,0.00,Wunderground v.1.15,2013-01-07 22:35:00,
2013-01-07 15:40:00,21.2,9.5,30.47,North,355,3.0,4.0,60,0.00,,,0.00,Wunderground v.1.15,2013-01-07 22:40:00,
2013-01-07 15:45:00,20.4,9.1,30.47,NW,321,3.0,5.0,61,0.00,,,0.00,Wunderground v.1.15,2013-01-07 22:45:00,
2013-01-07 15:50:00,20.1,9.2,30.47,NNW,331,3.0,3.0,62,0.00,,,0.00,Wunderground v.1.15,2013-01-07 22:50:00,
2013-01-07 15:55:00,19.8,8.9,30.46,NNW,340,2.0,3.0,62,0.00,,,0.00,Wunderground v.1.15,2013-01-07 22:55:00,
2013-01-07 16:05:00,19.7,8.8,30.46,NNW,336,1.0,2.0,62,0.00,,,0.00,Wunderground v.1.15,2013-01-07 23:05:00,
2013-01-07 16:15:00,19.5,8.9,30.46,NNE,33,0.0,1.0,63,0.00,,,0.00,Wunderground v.1.15,2013-01-07 23:15:00,
2013-01-07 16:20:00,19.1,8.6,30.47,NNE,26,1.0,1.0,63,0.00,,,0.00,Wunderground v.1.15,2013-01-07 23:20:00,
2013-01-07 16:25:00,18.6,8.1,30.47,NNE,30,1.0,1.0,63,0.00,,,0.00,Wunderground v.1.15,2013-01-07 23:25:00,
2013-01-07 16:35:00,17.5,7.7,30.48,NE,35,1.0,1.0,65,0.00,,,0.00,Wunderground v.1.15,2013-01-07 23:35:00,
2013-01-07 16:40:00,17.2,7.4,30.49,NE,34,1.0,1.0,65,0.00,,,0.00,Wunderground v.1.15,2013-01-07 23:40:00,
2013-01-07 16:50:00,16.4,7.0,30.49,NNE,15,1.0,1.0,66,0.00,,,0.00,Wunderground v.1.15,2013-01-07 23:50:00,
2013-01-07 16:55:00,15.9,6.5,30.48,NNE,16,0.0,1.0,66,0.00,,,0.00,Wunderground v.1.15,2013-01-07 23:55:00,
2013-01-07 17:00:00,15.5,6.5,30.48,ENE,63,1.0,3.0,67,0.00,,,0.00,Wunderground v.1.15,2013-01-08 00:00:00,
2013-01-07 17:05:00,15.3,6.6,30.50,ENE,63,1.0,3.0,68,0.00,,,0.00,Wunderground v.1.15,2013-01-08 00:05:00,
2013-01-07 17:15:00,14.8,6.1,30.51,ENE,63,0.0,1.0,68,0.00,,,0.00,Wunderground v.1.15,2013-01-08 00:15:00,
2013-01-07 17:20:00,14.3,6.0,30.51,North,360,0.0,0.0,69,0.00,,,0.00,Wunderground v.1.15,2013-01-08 00:20:00,
2013-01-07 17:25:00,13.8,5.5,30.51,North,355,1.0,1.0,69,0.00,,,0.00,Wunderground v.1.15,2013-01-08 00:25:00,
2013-01-07 17:30:00,13.3,5.0,30.53,North,355,0.0,0.0,69,0.00,,,0.00,Wunderground v.1.15,2013-01-08 00:30:00,
2013-01-07 17:40:00,11.7,3.8,30.53,North,355,0.0,0.0,70,0.00,,,0.00,Wunderground v.1.15,2013-01-08 00:40:00,
2013-01-07 17:45:00,10.2,2.0,30.55,North,355,0.0,0.0,69,0.00,,,0.00,Wunderground v.1.15,2013-01-08 00:45:00,
2013-01-07 17:50:00,9.3,1.8,30.56,WNW,284,1.0,1.0,71,0.00,,,0.00,Wunderground v.1.15,2013-01-08 00:50:00,
2013-01-07 17:55:00,8.9,1.7,30.56,WNW,284,1.0,1.0,72,0.00,,,0.00,Wunderground v.1.15,2013-01-08 00:55:00,
2013-01-07 18:05:00,8.6,2.0,30.54,WNW,284,0.0,0.0,74,0.00,,,0.00,Wunderground v.1.15,2013-01-08 01:05:00,
2013-01-07 18:15:00,9.4,3.4,30.54,WNW,284,0.0,0.0,76,0.00,,,0.00,Wunderground v.1.15,2013-01-08 01:15:00,
2013-01-07 18:20:00,9.6,3.6,30.54,WNW,284,1.0,2.0,76,0.00,,,0.00,Wunderground v.1.15,2013-01-08 01:20:00,
2013-01-07 18:25:00,9.2,2.9,30.55,WNW,288,1.0,2.0,75,0.00,,,0.00,Wunderground v.1.15,2013-01-08 01:25:00,
2013-01-07 18:30:00,8.5,1.9,30.55,WNW,289,2.0,2.0,74,0.00,,,0.00,Wunderground v.1.15,2013-01-08 01:30:00,
2013-01-07 18:40:00,6.9,0.4,30.58,NNE,13,2.0,4.0,74,0.00,,,0.00,Wunderground v.1.15,2013-01-08 01:40:00,
2013-01-07 18:45:00,6.2,-0.3,30.59,NNE,18,3.0,4.0,74,0.00,,,0.00,Wunderground v.1.15,2013-01-08 01:45:00,
2013-01-07 18:50:00,5.8,-0.4,30.58,ENE,68,2.0,3.0,75,0.00,,,0.00,Wunderground v.1.15,2013-01-08 01:50:00,
2013-01-07 18:55:00,5.8,-0.4,30.57,East,96,2.0,3.0,75,0.00,,,0.00,Wunderground v.1.15,2013-01-08 01:55:00,
2013-01-07 19:00:00,6.1,0.2,30.58,East,96,3.0,3.0,76,0.00,,,0.00,Wunderground v.1.15,2013-01-08 02:00:00,
2013-01-07 19:05:00,6.4,0.7,30.58,East,96,1.0,3.0,77,0.00,,,0.00,Wunderground v.1.15,2013-01-08 02:05:00,
2013-01-07 19:15:00,6.2,0.3,30.58,ENE,76,2.0,3.0,76,0.00,,,0.00,Wunderground v.1.15,2013-01-08 02:15:00,
2013-01-07 19:25:00,4.5,-1.7,30.58,NE,40,2.0,2.0,75,0.00,,,0.00,Wunderground v.1.15,2013-01-08 02:25:00,
2013-01-07 19:35:00,3.1,-3.3,30.59,NE,40,0.0,1.0,74,0.00,,,0.00,Wunderground v.1.15,2013-01-08 02:35:00,
2013-01-07 19:45:00,2.2,-4.2,30.59,NE,40,0.0,0.0,74,0.00,,,0.00,Wunderground v.1.15,2013-01-08 02:45:00,
2013-01-07 19:49:00,1.7,-4.7,30.59,NE,40,0.0,0.0,74,0.00,,,0.00,Wunderground v.1.15,2013-01-08 02:49:00,
2013-01-07 19:55:00,1.4,-4.7,30.60,NE,40,0.0,0.0,75,0.00,,,0.00,Wunderground v.1.15,2013-01-08 02:55:00,
2013-01-07 20:00:00,1.3,-4.5,30.60,NE,40,0.0,1.0,76,0.00,,,0.00,Wunderground v.1.15,2013-01-08 03:00:00,
2013-01-07 20:05:00,1.2,-4.6,30.59,NE,40,1.0,1.0,76,0.00,,,0.00,Wunderground v.1.15,2013-01-08 03:05:00,
2013-01-07 20:15:00,0.6,-5.2,30.58,NE,40,0.0,0.0,76,0.00,,,0.00,Wunderground v.1.15,2013-01-08 03:15:00,
2013-01-07 20:20:00,0.4,-5.4,30.60,NE,40,0.0,0.0,76,0.00,,,0.00,Wunderground v.1.15,2013-01-08 03:20:00,
2013-01-07 20:25:00,0.2,-5.6,30.60,NNE,19,1.0,2.0,76,0.00,,,0.00,Wunderground v.1.15,2013-01-08 03:25:00,
2013-01-07 20:35:00,-0.3,-5.8,30.60,NNW,342,2.0,2.0,77,0.00,,,0.00,Wunderground v.1.15,2013-01-08 03:35:00,
2013-01-07 20:40:00,-0.3,-5.8,30.60,NNW,342,1.0,1.0,77,0.00,,,0.00,Wunderground v.1.15,2013-01-08 03:40:00,
2013-01-07 20:50:00,-1.4,-6.9,30.60,NNW,342,1.0,1.0,77,0.00,,,0.00,Wunderground v.1.15,2013-01-08 03:50:00,
2013-01-07 20:55:00,-1.7,-7.2,30.61,NNW,342,1.0,1.0,77,0.00,,,0.00,Wunderground v.1.15,2013-01-08 03:55:00,
2013-01-07 21:00:00,-1.8,-7.3,30.61,NNW,341,1.0,1.0,77,0.00,,,0.00,Wunderground v.1.15,2013-01-08 04:00:00,
2013-01-07 21:05:00,-1.8,-7.0,30.56,NNW,342,0.0,1.0,78,0.00,,,0.00,Wunderground v.1.15,2013-01-08 04:05:00,
2013-01-07 21:14:00,-0.6,-5.6,30.56,NNE,30,2.0,2.0,79,0.00,,,0.00,Wunderground v.1.15,2013-01-08 04:14:00,
2013-01-07 21:19:00,-0.2,-5.2,30.55,NNE,31,2.0,2.0,79,0.00,,,0.00,Wunderground v.1.15,2013-01-08 04:19:00,
2013-01-07 21:24:00,0.0,-5.0,30.55,NNE,31,2.0,2.0,79,0.00,,,0.00,Wunderground v.1.15,2013-01-08 04:24:00,
2013-01-07 21:30:00,0.2,-4.8,30.55,NNE,31,1.0,1.0,79,0.00,,,0.00,Wunderground v.1.15,2013-01-08 04:30:00,
2013-01-07 21:35:00,0.4,-4.6,30.56,NNE,30,0.0,1.0,79,0.00,,,0.00,Wunderground v.1.15,2013-01-08 04:35:00,
2013-01-07 21:45:00,0.6,-4.4,30.56,NNE,31,0.0,0.0,79,0.00,,,0.00,Wunderground v.1.15,2013-01-08 04:45:00,
2013-01-07 21:50:00,0.7,-4.3,30.56,NNE,30,0.0,0.0,79,0.00,,,0.00,Wunderground v.1.15,2013-01-08 04:50:00,
2013-01-07 21:55:00,0.6,-4.6,30.56,NNE,31,0.0,0.0,78,0.00,,,0.00,Wunderground v.1.15,2013-01-08 04:55:00,
2013-01-07 22:05:00,1.0,-4.0,30.52,ESE,121,0.0,1.0,79,0.00,,,0.00,Wunderground v.1.15,2013-01-08 05:05:00,
2013-01-07 22:10:00,1.7,-3.3,30.51,ESE,123,1.0,1.0,79,0.00,,,0.00,Wunderground v.1.15,2013-01-08 05:10:00,
2013-01-07 22:15:00,2.1,-2.9,30.51,ESE,123,1.0,2.0,79,0.00,,,0.00,Wunderground v.1.15,2013-01-08 05:15:00,
2013-01-07 22:25:00,2.8,-2.2,30.51,ESE,123,1.0,1.0,79,0.00,,,0.00,Wunderground v.1.15,2013-01-08 05:25:00,
2013-01-07 22:34:00,3.1,-1.9,30.52,ESE,123,0.0,2.0,79,0.00,,,0.00,Wunderground v.1.15,2013-01-08 05:34:00,
2013-01-07 22:39:00,3.6,-1.2,30.50,ESE,123,0.0,0.0,80,0.00,,,0.00,Wunderground v.1.15,2013-01-08 05:39:00,
2013-01-07 22:44:00,3.8,-1.0,30.51,ESE,123,0.0,0.0,80,0.00,,,0.00,Wunderground v.1.15,2013-01-08 05:44:00,
2013-01-07 22:49:00,3.9,-1.2,30.51,ESE,123,0.0,0.0,79,0.00,,,0.00,Wunderground v.1.15,2013-01-08 05:49:00,
2013-01-07 22:55:00,3.9,-1.2,30.50,ESE,123,0.0,0.0,79,0.00,,,0.00,Wunderground v.1.15,2013-01-08 05:55:00,
2013-01-07 23:00:00,4.2,-0.9,30.50,ESE,123,0.0,0.0,79,0.00,,,0.00,Wunderground v.1.15,2013-01-08 06:00:00,
2013-01-07 23:05:00,4.5,-0.3,30.49,ESE,123,0.0,0.0,80,0.00,,,0.00,Wunderground v.1.15,2013-01-08 06:05:00,
2013-01-07 23:15:00,5.0,-0.1,30.48,ESE,123,0.0,0.0,79,0.00,,,0.00,Wunderground v.1.15,2013-01-08 06:15:00,
2013-01-07 23:20:00,4.8,-0.3,30.49,ESE,123,0.0,2.0,79,0.00,,,0.00,Wunderground v.1.15,2013-01-08 06:20:00,
2013-01-07 23:30:00,4.6,-0.8,30.49,ENE,77,1.0,1.0,78,0.00,,,0.00,Wunderground v.1.15,2013-01-08 06:30:00,
2013-01-07 23:35:00,4.5,-0.8,30.50,ENE,77,1.0,1.0,78,0.00,,,0.00,Wunderground v.1.15,2013-01-08 06:35:00,
2013-01-07 23:40:00,4.4,-0.9,30.50,ENE,77,1.0,1.0,78,0.00,,,0.00,Wunderground v.1.15,2013-01-08 06:40:00,
2013-01-07 23:45:00,4.2,-1.1,30.50,ENE,76,1.0,1.0,78,0.00,,,0.00,Wunderground v.1.15,2013-01-08 06:45:00,
2013-01-07 23:50:00,4.1,-1.2,30.50,ENE,76,0.0,0.0,78,0.00,,,0.00,Wunderground v.1.15,2013-01-08 06:50:00,
2013-01-07 23:59:00,4.0,-1.3,30.50,ENE,67,0.0,1.0,78,0.00,,,0.00,Wunderground v.1.15,2013-01-08 06:59:00,